createdAt,value
2019-01-27T00:00:03.170Z,2.12
2019-01-27T00:01:02.453Z,2.06
2019-01-27T00:02:02.765Z,2.06
2019-01-27T00:03:03.093Z,2.06
2019-01-27T00:04:02.668Z,2.12
2019-01-27T00:05:03.071Z,2.06
2019-01-27T00:06:02.377Z,2.06
2019-01-27T00:07:02.689Z,2.06
2019-01-27T00:08:03.010Z,2.06
2019-01-27T00:09:02.416Z,2.12
2019-01-27T00:10:02.741Z,2
2019-01-27T00:11:03.063Z,2.06
2019-01-27T00:12:02.384Z,2.06
2019-01-27T00:13:02.714Z,2.06
2019-01-27T00:14:03.006Z,1.93
2019-01-27T00:15:02.305Z,2
2019-01-27T00:16:02.655Z,2.06
2019-01-27T00:17:02.981Z,2.06
2019-01-27T00:18:02.286Z,2
2019-01-27T00:19:02.595Z,2
2019-01-27T00:20:02.845Z,2
2019-01-27T00:21:03.162Z,2
2019-01-27T00:22:02.455Z,2.06
2019-01-27T00:23:02.829Z,2.06
2019-01-27T00:24:03.113Z,2
2019-01-27T00:25:02.450Z,2.06
2019-01-27T00:26:02.778Z,2
2019-01-27T00:27:03.136Z,1.87
2019-01-27T00:28:02.443Z,1.87
2019-01-27T00:29:02.846Z,1.87
2019-01-27T00:30:03.177Z,1.87
2019-01-27T00:31:03.333Z,1.93
2019-01-27T00:32:02.612Z,1.93
2019-01-27T00:33:02.918Z,1.93
2019-01-27T00:34:03.255Z,1.93
2019-01-27T00:35:02.539Z,1.81
2019-01-27T00:36:02.874Z,1.75
2019-01-27T00:37:03.247Z,1.75
2019-01-27T00:38:02.529Z,1.68
2019-01-27T00:39:02.875Z,1.68
2019-01-27T00:40:03.249Z,1.68
2019-01-27T00:41:02.532Z,1.68
2019-01-27T00:42:02.855Z,1.62
2019-01-27T00:43:03.410Z,1.68
2019-01-27T00:44:02.687Z,1.75
2019-01-27T00:45:03.095Z,1.81
2019-01-27T00:46:02.508Z,1.81
2019-01-27T00:47:02.784Z,1.75
2019-01-27T00:48:03.082Z,1.81
2019-01-27T00:49:02.515Z,1.75
2019-01-27T00:50:02.810Z,1.68
2019-01-27T00:51:03.142Z,1.68
2019-01-27T00:52:02.454Z,1.68
2019-01-27T00:53:02.890Z,1.75
2019-01-27T00:54:03.320Z,1.81
2019-01-27T00:55:02.611Z,1.81
2019-01-27T00:56:02.987Z,1.81
2019-01-27T00:57:02.362Z,1.81
2019-01-27T00:58:02.698Z,1.87
2019-01-27T00:59:03.056Z,1.87
2019-01-27T01:00:02.390Z,1.87
2019-01-27T01:01:02.688Z,1.93
2019-01-27T01:02:03.060Z,1.87
2019-01-27T01:03:02.395Z,1.87
2019-01-27T01:04:02.696Z,1.87
2019-01-27T01:05:02.998Z,1.81
2019-01-27T01:06:02.296Z,1.87
2019-01-27T01:07:02.775Z,1.87
2019-01-27T01:08:03.106Z,1.81
2019-01-27T01:09:02.446Z,1.75
2019-01-27T01:10:02.775Z,1.68
2019-01-27T01:11:03.078Z,1.75
2019-01-27T01:12:02.403Z,1.75
2019-01-27T01:13:02.742Z,1.75
2019-01-27T01:14:03.013Z,1.75
2019-01-27T01:15:02.345Z,1.68
2019-01-27T01:16:02.613Z,1.75
2019-01-27T01:17:02.927Z,1.68
2019-01-27T01:18:03.299Z,1.75
2019-01-27T01:19:02.594Z,1.75
2019-01-27T01:20:02.917Z,1.68
2019-01-27T01:21:03.240Z,1.75
2019-01-27T01:22:02.575Z,1.68
2019-01-27T01:23:02.861Z,1.68
2019-01-27T01:24:03.238Z,1.68
2019-01-27T01:25:02.554Z,1.81
2019-01-27T01:26:02.843Z,1.81
2019-01-27T01:27:03.189Z,1.75
2019-01-27T01:28:02.569Z,1.75
2019-01-27T01:29:02.853Z,1.68
2019-01-27T01:30:03.215Z,1.81
2019-01-27T01:31:02.566Z,1.81
2019-01-27T01:32:02.867Z,1.81
2019-01-27T01:33:03.181Z,1.87
2019-01-27T01:34:02.453Z,1.81
2019-01-27T01:35:02.790Z,1.87
2019-01-27T01:36:03.169Z,1.81
2019-01-27T01:37:02.442Z,1.81
2019-01-27T01:38:02.767Z,1.81
2019-01-27T01:39:03.079Z,1.87
2019-01-27T01:40:02.361Z,1.87
2019-01-27T01:41:02.694Z,1.81
2019-01-27T01:42:03.055Z,1.87
2019-01-27T01:43:02.366Z,1.81
2019-01-27T01:44:02.692Z,1.81
2019-01-27T01:45:03.982Z,1.81
2019-01-27T01:46:02.279Z,1.87
2019-01-27T01:47:02.605Z,1.87
2019-01-27T01:48:03.016Z,1.87
2019-01-27T01:49:02.295Z,1.87
2019-01-27T01:50:02.647Z,1.87
2019-01-27T01:51:02.932Z,1.81
2019-01-27T01:52:03.245Z,1.81
2019-01-27T01:53:02.528Z,1.87
2019-01-27T01:54:02.907Z,1.87
2019-01-27T01:55:03.168Z,1.87
2019-01-27T01:56:02.450Z,1.87
2019-01-27T01:57:02.783Z,1.81
2019-01-27T01:58:03.088Z,1.81
2019-01-27T01:59:02.378Z,1.81
2019-01-27T02:00:02.741Z,1.93
2019-01-27T02:01:03.080Z,1.87
2019-01-27T02:02:02.371Z,1.87
2019-01-27T02:03:02.681Z,1.87
2019-01-27T02:04:03.007Z,1.87
2019-01-27T02:05:02.293Z,1.87
2019-01-27T02:06:02.689Z,1.87
2019-01-27T02:07:03.013Z,1.87
2019-01-27T02:08:02.523Z,1.93
2019-01-27T02:09:03.034Z,1.87
2019-01-27T02:10:02.546Z,1.87
2019-01-27T02:11:03.034Z,1.87
2019-01-27T02:12:02.475Z,1.93
2019-01-27T02:13:02.984Z,1.93
2019-01-27T02:14:02.509Z,1.93
2019-01-27T02:15:02.767Z,1.87
2019-01-27T02:16:03.083Z,1.87
2019-01-27T02:17:02.416Z,1.87
2019-01-27T02:18:02.680Z,1.87
2019-01-27T02:19:03.033Z,1.81
2019-01-27T02:20:02.362Z,1.81
2019-01-27T02:21:02.684Z,1.87
2019-01-27T02:22:03.080Z,1.75
2019-01-27T02:23:02.465Z,1.81
2019-01-27T02:24:02.783Z,1.81
2019-01-27T02:25:03.080Z,1.81
2019-01-27T02:26:02.364Z,1.81
2019-01-27T02:27:02.698Z,1.87
2019-01-27T02:28:03.095Z,2
2019-01-27T02:29:02.352Z,1.93
2019-01-27T02:30:02.611Z,1.93
2019-01-27T02:31:02.925Z,1.93
2019-01-27T02:32:03.298Z,1.93
2019-01-27T02:33:02.654Z,1.93
2019-01-27T02:34:02.930Z,2
2019-01-27T02:35:03.244Z,1.93
2019-01-27T02:36:02.531Z,1.93
2019-01-27T02:37:02.859Z,1.93
2019-01-27T02:38:03.257Z,1.93
2019-01-27T02:39:02.522Z,1.87
2019-01-27T02:40:02.857Z,1.93
2019-01-27T02:41:03.164Z,1.81
2019-01-27T02:42:02.439Z,1.75
2019-01-27T02:43:02.821Z,1.75
2019-01-27T02:44:03.130Z,1.75
2019-01-27T02:45:02.475Z,1.68
2019-01-27T02:46:02.781Z,1.68
2019-01-27T02:47:03.137Z,1.68
2019-01-27T02:48:02.503Z,1.68
2019-01-27T02:49:02.774Z,1.68
2019-01-27T02:50:03.232Z,1.68
2019-01-27T02:51:02.541Z,1.75
2019-01-27T02:52:02.849Z,1.68
2019-01-27T02:53:03.187Z,1.68
2019-01-27T02:54:02.542Z,1.68
2019-01-27T02:55:02.893Z,1.62
2019-01-27T02:56:03.245Z,1.68
2019-01-27T02:57:02.537Z,1.75
2019-01-27T02:58:02.850Z,1.68
2019-01-27T02:59:03.162Z,1.87
2019-01-27T03:00:02.460Z,1.81
2019-01-27T03:01:02.770Z,1.81
2019-01-27T03:02:03.139Z,1.87
2019-01-27T03:03:02.492Z,1.81
2019-01-27T03:04:02.767Z,1.81
2019-01-27T03:05:03.099Z,1.68
2019-01-27T03:06:02.377Z,1.68
2019-01-27T03:07:02.751Z,1.68
2019-01-27T03:08:03.087Z,1.81
2019-01-27T03:09:02.386Z,1.81
2019-01-27T03:10:02.683Z,1.75
2019-01-27T03:11:03.005Z,1.81
2019-01-27T03:12:02.285Z,1.68
2019-01-27T03:13:02.617Z,1.56
2019-01-27T03:14:03.012Z,1.75
2019-01-27T03:15:02.273Z,1.75
2019-01-27T03:16:02.704Z,1.81
2019-01-27T03:17:02.999Z,1.68
2019-01-27T03:18:02.330Z,1.68
2019-01-27T03:19:02.608Z,1.75
2019-01-27T03:20:03.164Z,1.75
2019-01-27T03:21:02.445Z,1.75
2019-01-27T03:22:02.758Z,1.81
2019-01-27T03:23:03.097Z,1.81
2019-01-27T03:24:02.374Z,1.81
2019-01-27T03:25:02.699Z,1.75
2019-01-27T03:26:03.138Z,1.68
2019-01-27T03:27:02.457Z,1.75
2019-01-27T03:28:02.769Z,1.81
2019-01-27T03:29:03.086Z,1.75
2019-01-27T03:30:02.364Z,1.81
2019-01-27T03:31:02.702Z,1.81
2019-01-27T03:32:03.071Z,1.75
2019-01-27T03:33:02.461Z,1.81
2019-01-27T03:34:02.847Z,1.81
2019-01-27T03:35:03.171Z,1.75
2019-01-27T03:36:02.448Z,1.68
2019-01-27T03:37:02.832Z,1.75
2019-01-27T03:38:03.091Z,1.81
2019-01-27T03:39:02.372Z,1.75
2019-01-27T03:40:02.687Z,1.75
2019-01-27T03:41:03.009Z,1.75
2019-01-27T03:42:02.290Z,1.81
2019-01-27T03:43:02.654Z,1.81
2019-01-27T03:44:02.931Z,1.81
2019-01-27T03:45:03.245Z,1.81
2019-01-27T03:46:02.532Z,1.81
2019-01-27T03:47:02.845Z,1.87
2019-01-27T03:48:03.226Z,1.87
2019-01-27T03:49:02.532Z,1.81
2019-01-27T03:50:02.830Z,1.81
2019-01-27T03:51:03.173Z,1.87
2019-01-27T03:52:02.439Z,1.87
2019-01-27T03:53:02.779Z,1.87
2019-01-27T03:54:03.148Z,1.75
2019-01-27T03:55:02.446Z,1.75
2019-01-27T03:56:02.756Z,1.75
2019-01-27T03:57:03.001Z,1.75
2019-01-27T03:58:02.297Z,1.68
2019-01-27T03:59:02.673Z,1.68
2019-01-27T04:00:03.013Z,1.68
2019-01-27T04:01:02.386Z,1.68
2019-01-27T04:02:02.688Z,1.75
2019-01-27T04:03:03.015Z,1.87
2019-01-27T04:04:02.376Z,1.87
2019-01-27T04:05:02.789Z,1.87
2019-01-27T04:06:03.082Z,1.87
2019-01-27T04:07:02.366Z,1.87
2019-01-27T04:08:02.698Z,1.81
2019-01-27T04:09:03.011Z,1.93
2019-01-27T04:10:02.354Z,1.93
2019-01-27T04:11:02.606Z,1.87
2019-01-27T04:12:02.931Z,1.81
2019-01-27T04:13:03.251Z,1.75
2019-01-27T04:14:02.537Z,1.75
2019-01-27T04:15:02.938Z,1.75
2019-01-27T04:16:03.253Z,1.68
2019-01-27T04:17:02.603Z,1.62
2019-01-27T04:18:02.926Z,1.75
2019-01-27T04:19:03.294Z,1.87
2019-01-27T04:20:02.690Z,1.93
2019-01-27T04:21:03.000Z,1.93
2019-01-27T04:22:02.285Z,2
2019-01-27T04:23:02.739Z,1.93
2019-01-27T04:24:03.004Z,2
2019-01-27T04:25:02.364Z,2
2019-01-27T04:26:02.695Z,2.06
2019-01-27T04:27:02.999Z,2
2019-01-27T04:28:02.280Z,1.93
2019-01-27T04:29:02.606Z,1.93
2019-01-27T04:30:02.980Z,2
2019-01-27T04:31:02.282Z,1.93
2019-01-27T04:32:02.614Z,1.93
2019-01-27T04:33:02.923Z,1.87
2019-01-27T04:34:03.301Z,1.93
2019-01-27T04:35:02.610Z,1.87
2019-01-27T04:36:02.985Z,1.81
2019-01-27T04:37:02.303Z,1.81
2019-01-27T04:38:02.613Z,1.81
2019-01-27T04:39:02.976Z,1.87
2019-01-27T04:40:02.292Z,1.81
2019-01-27T04:41:02.629Z,1.81
2019-01-27T04:42:02.983Z,1.75
2019-01-27T04:43:02.286Z,1.75
2019-01-27T04:44:02.629Z,1.75
2019-01-27T04:45:02.924Z,1.75
2019-01-27T04:46:03.273Z,1.81
2019-01-27T04:47:02.617Z,2
2019-01-27T04:48:02.978Z,1.87
2019-01-27T04:49:02.298Z,1.93
2019-01-27T04:50:02.595Z,1.87
2019-01-27T04:51:02.848Z,1.87
2019-01-27T04:52:03.176Z,1.93
2019-01-27T04:53:02.459Z,2
2019-01-27T04:54:02.819Z,2.06
2019-01-27T04:55:03.203Z,2.06
2019-01-27T04:56:02.539Z,2.12
2019-01-27T04:57:02.843Z,2.12
2019-01-27T04:58:03.174Z,2.18
2019-01-27T04:59:02.447Z,2.18
2019-01-27T05:00:02.822Z,2.12
2019-01-27T05:01:03.084Z,2.18
2019-01-27T05:02:02.377Z,2.12
2019-01-27T05:03:02.693Z,2.12
2019-01-27T05:04:02.999Z,2.12
2019-01-27T05:05:02.290Z,2.12
2019-01-27T05:06:02.724Z,2.12
2019-01-27T05:07:03.006Z,2.18
2019-01-27T05:08:02.292Z,2.18
2019-01-27T05:09:02.605Z,2.12
2019-01-27T05:10:02.940Z,2.18
2019-01-27T05:11:03.352Z,2.18
2019-01-27T05:12:02.614Z,2.18
2019-01-27T05:13:02.929Z,2.12
2019-01-27T05:14:03.257Z,2.06
2019-01-27T05:15:03.400Z,2.06
2019-01-27T05:16:02.759Z,2.06
2019-01-27T05:17:03.143Z,2.12
2019-01-27T05:18:02.514Z,2.06
2019-01-27T05:19:02.837Z,1.93
2019-01-27T05:20:03.092Z,2.06
2019-01-27T05:21:02.369Z,2
2019-01-27T05:22:02.753Z,2
2019-01-27T05:23:03.021Z,2.06
2019-01-27T05:24:02.378Z,1.93
2019-01-27T05:25:02.652Z,2
2019-01-27T05:26:02.334Z,2
2019-01-27T05:27:02.707Z,2.06
2019-01-27T05:28:02.997Z,2.06
2019-01-27T05:29:02.294Z,2
2019-01-27T05:30:02.601Z,1.93
2019-01-27T05:31:02.922Z,2.06
2019-01-27T05:32:03.347Z,1.93
2019-01-27T05:33:02.677Z,1.87
2019-01-27T05:34:03.009Z,1.93
2019-01-27T05:35:02.297Z,1.93
2019-01-27T05:36:02.633Z,2
2019-01-27T05:37:02.977Z,1.93
2019-01-27T05:38:02.343Z,1.93
2019-01-27T05:39:02.571Z,2.06
2019-01-27T05:40:02.849Z,2.12
2019-01-27T05:41:03.180Z,2.12
2019-01-27T05:42:02.454Z,2.12
2019-01-27T05:43:02.824Z,2.25
2019-01-27T05:44:03.103Z,2.25
2019-01-27T05:45:02.372Z,2.25
2019-01-27T05:46:02.680Z,2.25
2019-01-27T05:47:03.021Z,2.31
2019-01-27T05:48:03.157Z,2.25
2019-01-27T05:49:02.506Z,2.25
2019-01-27T05:50:02.776Z,2.25
2019-01-27T05:51:03.089Z,2.31
2019-01-27T05:52:02.375Z,2.37
2019-01-27T05:53:02.692Z,2.31
2019-01-27T05:54:03.026Z,2.31
2019-01-27T05:55:02.362Z,2.25
2019-01-27T05:56:02.714Z,2.31
2019-01-27T05:57:03.027Z,2.37
2019-01-27T05:58:02.423Z,2.37
2019-01-27T05:59:03.587Z,2.31
2019-01-27T06:00:02.989Z,2.25
2019-01-27T06:01:02.295Z,2.43
2019-01-27T06:02:02.612Z,2.43
2019-01-27T06:03:02.932Z,2.31
2019-01-27T06:04:04.782Z,2.25
2019-01-27T06:05:03.098Z,2.12
2019-01-27T06:06:02.429Z,2.18
2019-01-27T06:07:02.679Z,2.37
2019-01-27T06:08:03.010Z,2.25
2019-01-27T06:09:02.390Z,2.31
2019-01-27T06:10:02.682Z,2.37
2019-01-27T06:11:03.025Z,2.37
2019-01-27T06:12:02.384Z,2.25
2019-01-27T06:13:02.740Z,2.37
2019-01-27T06:14:03.003Z,2.37
2019-01-27T06:15:02.302Z,2.25
2019-01-27T06:16:02.630Z,2.31
2019-01-27T06:17:02.977Z,2.25
2019-01-27T06:18:02.294Z,2.25
2019-01-27T06:19:02.627Z,2.25
2019-01-27T06:20:02.925Z,2.18
2019-01-27T06:21:03.237Z,2.25
2019-01-27T06:22:02.533Z,2.12
2019-01-27T06:23:02.912Z,2.12
2019-01-27T06:24:03.257Z,2.37
2019-01-27T06:25:02.543Z,2.43
2019-01-27T06:26:02.839Z,2.43
2019-01-27T06:27:03.168Z,2.43
2019-01-27T06:28:02.496Z,2.25
2019-01-27T06:29:02.859Z,2.25
2019-01-27T06:30:03.158Z,2.31
2019-01-27T06:31:02.546Z,2.31
2019-01-27T06:32:02.855Z,2.31
2019-01-27T06:33:03.183Z,2.31
2019-01-27T06:34:02.496Z,2.25
2019-01-27T06:35:02.775Z,2.25
2019-01-27T06:36:03.103Z,2.18
2019-01-27T06:37:02.370Z,2.31
2019-01-27T06:38:02.695Z,2.25
2019-01-27T06:39:03.026Z,2.25
2019-01-27T06:40:02.357Z,2.12
2019-01-27T06:41:02.609Z,2.12
2019-01-27T06:42:02.929Z,2.25
2019-01-27T06:43:03.241Z,2.31
2019-01-27T06:44:02.542Z,2.25
2019-01-27T06:45:02.940Z,2.18
2019-01-27T06:46:03.245Z,2.06
2019-01-27T06:47:02.539Z,2.06
2019-01-27T06:48:02.841Z,2.12
2019-01-27T06:49:03.166Z,2.06
2019-01-27T06:50:02.539Z,2.06
2019-01-27T06:51:03.013Z,2.06
2019-01-27T06:52:02.297Z,2.12
2019-01-27T06:53:02.608Z,2.06
2019-01-27T06:54:02.944Z,2.12
2019-01-27T06:55:03.257Z,2.06
2019-01-27T06:56:02.532Z,2.06
2019-01-27T06:57:02.906Z,2
2019-01-27T06:58:03.169Z,1.93
2019-01-27T06:59:02.445Z,2.12
2019-01-27T07:00:02.824Z,2.06
2019-01-27T07:01:03.092Z,2.06
2019-01-27T07:02:02.381Z,2.06
2019-01-27T07:03:02.737Z,2
2019-01-27T07:04:03.008Z,2
2019-01-27T07:05:02.286Z,2
2019-01-27T07:06:02.608Z,2.12
2019-01-27T07:07:02.925Z,2.06
2019-01-27T07:08:03.417Z,2.12
2019-01-27T07:09:02.699Z,2.12
2019-01-27T07:10:03.022Z,2.12
2019-01-27T07:11:02.292Z,2.06
2019-01-27T07:12:02.618Z,2.06
2019-01-27T07:13:02.934Z,2.12
2019-01-27T07:14:03.747Z,2.06
2019-01-27T07:15:03.136Z,2.12
2019-01-27T07:16:02.448Z,2.18
2019-01-27T07:17:02.773Z,2.12
2019-01-27T07:18:03.085Z,2
2019-01-27T07:19:02.378Z,2.06
2019-01-27T07:20:02.745Z,2.06
2019-01-27T07:21:03.021Z,2
2019-01-27T07:22:02.280Z,2.12
2019-01-27T07:23:02.611Z,2.12
2019-01-27T07:24:02.932Z,2.06
2019-01-27T07:25:03.301Z,2.12
2019-01-27T07:26:02.631Z,2.06
2019-01-27T07:27:02.935Z,2.06
2019-01-27T07:28:03.245Z,2.06
2019-01-27T07:29:02.533Z,2.12
2019-01-27T07:30:02.849Z,2.06
2019-01-27T07:31:03.251Z,2.12
2019-01-27T07:32:02.530Z,2.18
2019-01-27T07:33:02.835Z,2.18
2019-01-27T07:34:03.093Z,2.18
2019-01-27T07:35:02.360Z,2.31
2019-01-27T07:36:02.695Z,2.31
2019-01-27T07:37:03.077Z,2.43
2019-01-27T07:38:02.350Z,2.37
2019-01-27T07:39:02.621Z,2.37
2019-01-27T07:40:02.928Z,2.43
2019-01-27T07:41:03.252Z,2.37
2019-01-27T07:42:02.531Z,2.5
2019-01-27T07:43:02.941Z,2.5
2019-01-27T07:44:03.246Z,2.56
2019-01-27T07:45:02.530Z,2.37
2019-01-27T07:46:02.837Z,2.31
2019-01-27T07:47:03.219Z,2.31
2019-01-27T07:48:02.532Z,2.43
2019-01-27T07:49:02.933Z,2.37
2019-01-27T07:50:03.243Z,2.31
2019-01-27T07:51:02.534Z,2.37
2019-01-27T07:52:02.872Z,2.37
2019-01-27T07:53:03.184Z,2.43
2019-01-27T07:54:02.502Z,2.43
2019-01-27T07:55:02.833Z,2.37
2019-01-27T07:56:03.100Z,2.43
2019-01-27T07:57:02.376Z,2.5
2019-01-27T07:58:02.695Z,2.43
2019-01-27T07:59:03.031Z,2.43
2019-01-27T08:00:02.299Z,2.56
2019-01-27T08:01:02.702Z,2.5
2019-01-27T08:02:03.106Z,2.43
2019-01-27T08:03:02.364Z,2.43
2019-01-27T08:04:02.699Z,2.37
2019-01-27T08:05:03.028Z,2.37
2019-01-27T08:06:02.340Z,2.37
2019-01-27T08:07:02.666Z,2.37
2019-01-27T08:08:02.926Z,2.5
2019-01-27T08:09:03.242Z,2.5
2019-01-27T08:10:02.615Z,2.43
2019-01-27T08:11:02.918Z,2.43
2019-01-27T08:12:03.310Z,2.43
2019-01-27T08:13:02.616Z,2.43
2019-01-27T08:14:02.924Z,2.37
2019-01-27T08:15:03.246Z,2.5
2019-01-27T08:16:03.425Z,2.56
2019-01-27T08:17:03.622Z,2.56
2019-01-27T08:18:03.068Z,2.56
2019-01-27T08:19:02.379Z,2.62
2019-01-27T08:20:02.705Z,2.56
2019-01-27T08:21:03.006Z,2.56
2019-01-27T08:22:02.300Z,2.62
2019-01-27T08:23:02.702Z,2.56
2019-01-27T08:24:03.049Z,2.62
2019-01-27T08:25:02.382Z,2.56
2019-01-27T08:26:02.772Z,2.62
2019-01-27T08:27:03.079Z,2.62
2019-01-27T08:28:02.375Z,2.56
2019-01-27T08:29:02.808Z,2.68
2019-01-27T08:30:03.115Z,2.75
2019-01-27T08:31:02.457Z,2.87
2019-01-27T08:32:02.777Z,2.87
2019-01-27T08:33:03.086Z,3.06
2019-01-27T08:34:02.450Z,3.06
2019-01-27T08:35:02.765Z,2.87
2019-01-27T08:36:03.083Z,2.81
2019-01-27T08:37:02.370Z,2.81
2019-01-27T08:38:02.686Z,2.93
2019-01-27T08:39:03.093Z,2.93
2019-01-27T08:40:02.375Z,2.93
2019-01-27T08:41:02.741Z,2.81
2019-01-27T08:42:03.026Z,2.93
2019-01-27T08:43:02.370Z,2.81
2019-01-27T08:44:02.707Z,2.75
2019-01-27T08:45:03.097Z,2.75
2019-01-27T08:46:02.369Z,2.75
2019-01-27T08:47:02.710Z,2.75
2019-01-27T08:48:03.022Z,2.68
2019-01-27T08:49:02.290Z,2.87
2019-01-27T08:50:02.722Z,2.87
2019-01-27T08:51:02.998Z,2.81
2019-01-27T08:52:02.303Z,2.75
2019-01-27T08:53:02.601Z,2.75
2019-01-27T08:54:02.946Z,3
2019-01-27T08:55:03.300Z,2.87
2019-01-27T08:56:02.591Z,2.87
2019-01-27T08:57:02.859Z,2.87
2019-01-27T08:58:03.190Z,2.87
2019-01-27T08:59:02.445Z,2.81
2019-01-27T09:00:02.824Z,2.87
2019-01-27T09:01:03.140Z,3
2019-01-27T09:02:02.448Z,2.93
2019-01-27T09:03:03.441Z,3.12
2019-01-27T09:04:02.844Z,3
2019-01-27T09:05:03.228Z,3
2019-01-27T09:06:02.580Z,3.06
2019-01-27T09:07:02.949Z,3.06
2019-01-27T09:08:03.253Z,3.12
2019-01-27T09:09:02.541Z,3.18
2019-01-27T09:10:02.941Z,3.18
2019-01-27T09:11:03.247Z,3.18
2019-01-27T09:12:02.542Z,3.18
2019-01-27T09:13:02.898Z,3.18
2019-01-27T09:14:03.173Z,3.18
2019-01-27T09:15:02.444Z,3.25
2019-01-27T09:16:02.762Z,3.25
2019-01-27T09:17:03.103Z,3.25
2019-01-27T09:18:02.455Z,3.43
2019-01-27T09:19:02.819Z,3.5
2019-01-27T09:20:03.079Z,3.43
2019-01-27T09:21:02.401Z,3.68
2019-01-27T09:22:02.684Z,3.68
2019-01-27T09:23:03.027Z,3.62
2019-01-27T09:24:02.388Z,3.62
2019-01-27T09:25:02.740Z,3.81
2019-01-27T09:26:03.106Z,3.68
2019-01-27T09:27:02.330Z,3.62
2019-01-27T09:28:02.617Z,3.56
2019-01-27T09:29:02.917Z,3.68
2019-01-27T09:30:03.287Z,3.62
2019-01-27T09:31:02.602Z,3.62
2019-01-27T09:32:02.926Z,3.62
2019-01-27T09:33:03.248Z,3.62
2019-01-27T09:34:02.539Z,3.62
2019-01-27T09:35:02.917Z,3.62
2019-01-27T09:36:03.299Z,3.75
2019-01-27T09:37:02.612Z,3.68
2019-01-27T09:38:02.919Z,3.62
2019-01-27T09:39:03.258Z,3.62
2019-01-27T09:40:02.530Z,3.68
2019-01-27T09:41:02.852Z,3.62
2019-01-27T09:42:03.232Z,3.75
2019-01-27T09:43:02.522Z,3.68
2019-01-27T09:44:02.849Z,3.75
2019-01-27T09:45:03.190Z,3.81
2019-01-27T09:46:05.336Z,3.68
2019-01-27T09:47:03.223Z,3.68
2019-01-27T09:48:02.643Z,3.68
2019-01-27T09:49:03.809Z,3.75
2019-01-27T09:50:03.143Z,3.75
2019-01-27T09:51:02.443Z,3.75
2019-01-27T09:52:02.756Z,3.81
2019-01-27T09:53:03.105Z,3.62
2019-01-27T09:54:03.315Z,3.68
2019-01-27T09:55:02.607Z,3.62
2019-01-27T09:56:02.926Z,3.62
2019-01-27T09:57:03.269Z,3.75
2019-01-27T09:58:02.524Z,3.68
2019-01-27T09:59:02.856Z,3.62
2019-01-27T10:00:03.224Z,3.68
2019-01-27T10:01:02.535Z,3.62
2019-01-27T10:02:02.853Z,3.62
2019-01-27T10:03:03.172Z,3.5
2019-01-27T10:04:02.439Z,3.5
2019-01-27T10:05:02.768Z,3.56
2019-01-27T10:06:03.136Z,3.43
2019-01-27T10:07:02.454Z,3.43
2019-01-27T10:08:02.768Z,3.56
2019-01-27T10:09:03.109Z,3.56
2019-01-27T10:10:02.942Z,3.56
2019-01-27T10:11:02.338Z,3.62
2019-01-27T10:12:02.722Z,3.62
2019-01-27T10:13:03.212Z,3.62
2019-01-27T10:14:02.535Z,3.62
2019-01-27T10:15:02.852Z,3.5
2019-01-27T10:16:03.254Z,3.43
2019-01-27T10:17:02.540Z,3.43
2019-01-27T10:18:02.904Z,3.37
2019-01-27T10:19:03.169Z,3.43
2019-01-27T10:20:02.444Z,3.37
2019-01-27T10:21:02.769Z,3.31
2019-01-27T10:22:03.117Z,3.37
2019-01-27T10:23:03.423Z,3.43
2019-01-27T10:24:03.663Z,3.43
2019-01-27T10:25:02.919Z,3.37
2019-01-27T10:26:03.378Z,3.43
2019-01-27T10:27:02.680Z,3.37
2019-01-27T10:28:02.999Z,3.37
2019-01-27T10:29:02.288Z,3.37
2019-01-27T10:30:02.965Z,3.37
2019-01-27T10:31:02.290Z,3.37
2019-01-27T10:32:02.619Z,3.37
2019-01-27T10:33:02.924Z,3.5
2019-01-27T10:34:03.261Z,3.5
2019-01-27T10:35:02.622Z,3.43
2019-01-27T10:36:03.019Z,3.5
2019-01-27T10:37:02.283Z,3.5
2019-01-27T10:38:02.606Z,3.43
2019-01-27T10:39:02.924Z,3.43
2019-01-27T10:40:09.074Z,3.37
2019-01-27T10:41:03.068Z,3.37
2019-01-27T10:42:02.730Z,3.37
2019-01-27T10:43:03.896Z,3.43
2019-01-27T10:44:03.168Z,3.43
2019-01-27T10:45:02.457Z,3.43
2019-01-27T10:46:02.768Z,3.43
2019-01-27T10:47:03.093Z,3.5
2019-01-27T10:48:02.766Z,3.56
2019-01-27T10:49:03.179Z,3.56
2019-01-27T10:50:02.557Z,3.68
2019-01-27T10:51:02.937Z,3.68
2019-01-27T10:52:03.242Z,3.62
2019-01-27T10:53:02.540Z,3.56
2019-01-27T10:54:02.907Z,3.56
2019-01-27T10:55:03.169Z,3.56
2019-01-27T10:56:02.443Z,3.43
2019-01-27T10:57:02.762Z,3.5
2019-01-27T10:58:03.101Z,3.5
2019-01-27T10:59:02.369Z,3.56
2019-01-27T11:00:02.782Z,3.5
2019-01-27T11:01:03.091Z,3.43
2019-01-27T11:02:02.373Z,3.43
2019-01-27T11:03:02.681Z,3.5
2019-01-27T11:04:03.006Z,3.56
2019-01-27T11:05:02.342Z,3.56
2019-01-27T11:06:02.777Z,3.56
2019-01-27T11:07:03.088Z,3.56
2019-01-27T11:08:02.378Z,3.62
2019-01-27T11:09:03.568Z,3.68
2019-01-27T11:10:02.871Z,3.68
2019-01-27T11:11:03.223Z,3.62
2019-01-27T11:12:02.546Z,3.62
2019-01-27T11:13:02.878Z,3.68
2019-01-27T11:14:03.168Z,3.68
2019-01-27T11:15:02.451Z,3.68
2019-01-27T11:16:02.916Z,3.56
2019-01-27T11:17:03.310Z,3.62
2019-01-27T11:18:02.609Z,3.68
2019-01-27T11:19:02.941Z,3.68
2019-01-27T11:20:03.258Z,3.75
2019-01-27T11:21:02.589Z,3.81
2019-01-27T11:22:02.958Z,3.81
2019-01-27T11:23:02.342Z,3.87
2019-01-27T11:24:02.613Z,3.93
2019-01-27T11:25:02.937Z,4
2019-01-27T11:26:03.239Z,4
2019-01-27T11:27:02.556Z,4
2019-01-27T11:28:02.972Z,4
2019-01-27T11:29:02.286Z,4.06
2019-01-27T11:30:02.607Z,4.06
2019-01-27T11:31:02.928Z,4
2019-01-27T11:32:03.249Z,3.93
2019-01-27T11:33:02.635Z,4.06
2019-01-27T11:34:03.256Z,4.06
2019-01-27T11:35:02.542Z,4.06
2019-01-27T11:36:02.865Z,4.06
2019-01-27T11:37:03.221Z,4
2019-01-27T11:38:02.532Z,4.12
2019-01-27T11:39:02.846Z,4
2019-01-27T11:40:03.226Z,4.06
2019-01-27T11:41:02.532Z,4.12
2019-01-27T11:42:02.845Z,4.06
2019-01-27T11:43:03.172Z,4.18
2019-01-27T11:44:02.441Z,4.25
2019-01-27T11:45:02.774Z,4.18
2019-01-27T11:46:03.151Z,4.18
2019-01-27T11:47:02.458Z,4.18
2019-01-27T11:48:02.826Z,4.25
2019-01-27T11:49:03.144Z,4.18
2019-01-27T11:50:02.442Z,4.18
2019-01-27T11:51:02.777Z,4.06
2019-01-27T11:52:03.209Z,4.12
2019-01-27T11:53:02.541Z,4.18
2019-01-27T11:54:02.857Z,4.18
2019-01-27T11:55:03.168Z,4.25
2019-01-27T11:56:02.450Z,4.25
2019-01-27T11:57:02.780Z,4.31
2019-01-27T11:58:03.219Z,4.25
2019-01-27T11:59:02.531Z,4.31
2019-01-27T12:00:02.848Z,4.25
2019-01-27T12:01:03.166Z,4.25
2019-01-27T12:02:02.498Z,4.25
2019-01-27T12:03:02.793Z,4.31
2019-01-27T12:04:03.189Z,4.25
2019-01-27T12:05:02.438Z,4.25
2019-01-27T12:06:04.526Z,4.31
2019-01-27T12:07:02.937Z,4.25
2019-01-27T12:08:04.129Z,4.31
2019-01-27T12:09:02.457Z,4.31
2019-01-27T12:10:02.818Z,4.31
2019-01-27T12:11:03.096Z,4.43
2019-01-27T12:12:02.379Z,4.37
2019-01-27T12:13:03.581Z,4.31
2019-01-27T12:14:03.825Z,4.31
2019-01-27T12:15:03.088Z,4.31
2019-01-27T12:16:02.535Z,4.31
2019-01-27T12:17:02.853Z,4.31
2019-01-27T12:18:03.169Z,4.43
2019-01-27T12:19:02.446Z,4.43
2019-01-27T12:20:02.771Z,4.37
2019-01-27T12:21:03.091Z,4.37
2019-01-27T12:22:02.485Z,4.31
2019-01-27T12:23:02.821Z,4.25
2019-01-27T12:24:03.089Z,4.25
2019-01-27T12:25:02.366Z,4.5
2019-01-27T12:26:02.690Z,4.5
2019-01-27T12:27:03.060Z,4.5
2019-01-27T12:28:02.352Z,4.56
2019-01-27T12:29:03.484Z,4.75
2019-01-27T12:30:02.845Z,4.56
2019-01-27T12:31:03.169Z,4.68
2019-01-27T12:32:02.467Z,4.68
2019-01-27T12:33:02.821Z,4.75
2019-01-27T12:34:03.097Z,4.75
2019-01-27T12:35:02.370Z,4.68
2019-01-27T12:36:02.683Z,4.68
2019-01-27T12:37:03.022Z,4.56
2019-01-27T12:38:02.295Z,4.56
2019-01-27T12:39:02.730Z,4.56
2019-01-27T12:40:03.003Z,4.62
2019-01-27T12:41:02.307Z,4.62
2019-01-27T12:42:02.598Z,4.62
2019-01-27T12:43:02.926Z,4.56
2019-01-27T12:44:03.414Z,4.56
2019-01-27T12:45:02.685Z,4.56
2019-01-27T12:46:03.008Z,4.5
2019-01-27T12:47:02.294Z,4.43
2019-01-27T12:48:02.612Z,4.5
2019-01-27T12:49:02.933Z,4.56
2019-01-27T12:50:03.282Z,4.5
2019-01-27T12:51:02.626Z,4.5
2019-01-27T12:52:02.946Z,4.56
2019-01-27T12:53:03.261Z,4.43
2019-01-27T12:54:02.531Z,4.5
2019-01-27T12:55:02.979Z,4.5
2019-01-27T12:56:02.307Z,4.56
2019-01-27T12:57:02.637Z,4.43
2019-01-27T12:58:02.926Z,4.62
2019-01-27T12:59:03.261Z,4.62
2019-01-27T13:00:02.540Z,4.5
2019-01-27T13:01:02.967Z,4.56
2019-01-27T13:02:02.272Z,4.56
2019-01-27T13:03:02.614Z,4.56
2019-01-27T13:04:02.909Z,4.5
2019-01-27T13:05:03.241Z,4.5
2019-01-27T13:06:02.530Z,4.5
2019-01-27T13:07:02.965Z,4.56
2019-01-27T13:08:02.296Z,4.5
2019-01-27T13:09:02.626Z,4.5
2019-01-27T13:10:02.986Z,4.56
2019-01-27T13:11:05.549Z,4.56
2019-01-27T13:12:03.265Z,4.62
2019-01-27T13:13:02.614Z,4.43
2019-01-27T13:14:02.930Z,4.43
2019-01-27T13:15:03.262Z,4.37
2019-01-27T13:16:02.543Z,4.31
2019-01-27T13:17:07.387Z,4.31
2019-01-27T13:18:02.934Z,4.31
2019-01-27T13:19:03.300Z,4.25
2019-01-27T13:20:02.600Z,4.25
2019-01-27T13:21:02.927Z,4.18
2019-01-27T13:22:03.241Z,4.37
2019-01-27T13:23:02.532Z,4.31